sensor_id;sensor_type;location;lat;lon;timestamp;temperature;humidity
15298;DHT22;7750;48.796;9.026;2022-09-09T00:03:24;19.70;61.00
15298;DHT22;7750;48.796;9.026;2022-09-09T00:08:44;19.70;61.10
15298;DHT22;7750;48.796;9.026;2022-09-09T00:13:52;19.70;61.00
15298;DHT22;7750;48.796;9.026;2022-09-09T00:19:02;19.70;61.00
15298;DHT22;7750;48.796;9.026;2022-09-09T00:24:23;19.70;61.00
15298;DHT22;7750;48.796;9.026;2022-09-09T00:40:23;19.80;61.10
15298;DHT22;7750;48.796;9.026;2022-09-09T00:51:13;19.70;61.10
15298;DHT22;7750;48.796;9.026;2022-09-09T00:56:22;19.80;60.80
15298;DHT22;7750;48.796;9.026;2022-09-09T01:01:26;19.80;61.20
15298;DHT22;7750;48.796;9.026;2022-09-09T01:06:32;19.80;61.20
15298;DHT22;7750;48.796;9.026;2022-09-09T01:16:47;19.80;61.50
15298;DHT22;7750;48.796;9.026;2022-09-09T01:22:04;19.80;61.10
15298;DHT22;7750;48.796;9.026;2022-09-09T01:27:10;19.80;61.30
15298;DHT22;7750;48.796;9.026;2022-09-09T01:32:38;19.80;61.00
15298;DHT22;7750;48.796;9.026;2022-09-09T01:37:40;19.90;61.10
15298;DHT22;7750;48.796;9.026;2022-09-09T01:42:41;19.80;61.00
15298;DHT22;7750;48.796;9.026;2022-09-09T01:47:41;19.80;61.10
15298;DHT22;7750;48.796;9.026;2022-09-09T01:52:44;19.70;61.30
15298;DHT22;7750;48.796;9.026;2022-09-09T02:03:27;19.70;61.80
15298;DHT22;7750;48.796;9.026;2022-09-09T02:08:49;19.60;61.70
15298;DHT22;7750;48.796;9.026;2022-09-09T02:14:00;19.60;62.00
15298;DHT22;7750;48.796;9.026;2022-09-09T02:24:27;19.50;62.20
15298;DHT22;7750;48.796;9.026;2022-09-09T02:29:33;19.50;62.20
15298;DHT22;7750;48.796;9.026;2022-09-09T02:34:39;19.50;62.30
15298;DHT22;7750;48.796;9.026;2022-09-09T02:39:40;19.50;62.30
15298;DHT22;7750;48.796;9.026;2022-09-09T02:44:41;19.40;62.20
15298;DHT22;7750;48.796;9.026;2022-09-09T02:55:16;19.40;62.40
15298;DHT22;7750;48.796;9.026;2022-09-09T03:00:26;19.40;62.60
15298;DHT22;7750;48.796;9.026;2022-09-09T03:05:27;19.30;62.60
15298;DHT22;7750;48.796;9.026;2022-09-09T03:10:28;19.30;62.60
15298;DHT22;7750;48.796;9.026;2022-09-09T03:15:29;19.20;62.80
15298;DHT22;7750;48.796;9.026;2022-09-09T03:20:30;19.30;62.90
15298;DHT22;7750;48.796;9.026;2022-09-09T03:25:31;19.20;63.00
15298;DHT22;7750;48.796;9.026;2022-09-09T03:30:32;19.10;63.20
15298;DHT22;7750;48.796;9.026;2022-09-09T03:35:33;19.10;63.30
15298;DHT22;7750;48.796;9.026;2022-09-09T03:40:33;19.10;63.20
15298;DHT22;7750;48.796;9.026;2022-09-09T03:45:34;19.00;63.10
15298;DHT22;7750;48.796;9.026;2022-09-09T03:50:34;19.00;63.10
15298;DHT22;7750;48.796;9.026;2022-09-09T03:55:35;19.00;63.40
15298;DHT22;7750;48.796;9.026;2022-09-09T04:00:36;19.00;63.60
15298;DHT22;7750;48.796;9.026;2022-09-09T04:05:37;18.90;63.80
15298;DHT22;7750;48.796;9.026;2022-09-09T04:10:40;18.90;63.90
15298;DHT22;7750;48.796;9.026;2022-09-09T04:15:42;18.90;63.90
15298;DHT22;7750;48.796;9.026;2022-09-09T04:20:46;18.90;64.20
15298;DHT22;7750;48.796;9.026;2022-09-09T04:25:52;18.90;65.10
15298;DHT22;7750;48.796;9.026;2022-09-09T04:30:53;19.00;64.50
15298;DHT22;7750;48.796;9.026;2022-09-09T04:35:53;18.90;64.40
15298;DHT22;7750;48.796;9.026;2022-09-09T04:40:54;19.00;64.50
15298;DHT22;7750;48.796;9.026;2022-09-09T04:45:55;19.00;64.60
15298;DHT22;7750;48.796;9.026;2022-09-09T04:51:03;19.00;64.40
15298;DHT22;7750;48.796;9.026;2022-09-09T04:56:10;19.00;64.40
15298;DHT22;7750;48.796;9.026;2022-09-09T05:01:19;19.00;64.50
15298;DHT22;7750;48.796;9.026;2022-09-09T05:06:22;19.00;64.70
15298;DHT22;7750;48.796;9.026;2022-09-09T05:11:28;19.00;64.60
15298;DHT22;7750;48.796;9.026;2022-09-09T05:16:29;18.90;64.80
15298;DHT22;7750;48.796;9.026;2022-09-09T05:21:30;19.00;64.80
15298;DHT22;7750;48.796;9.026;2022-09-09T05:26:31;18.90;64.80
15298;DHT22;7750;48.796;9.026;2022-09-09T05:31:32;19.00;65.00
15298;DHT22;7750;48.796;9.026;2022-09-09T05:36:33;19.00;65.10
15298;DHT22;7750;48.796;9.026;2022-09-09T05:41:33;19.00;65.10
15298;DHT22;7750;48.796;9.026;2022-09-09T05:46:35;19.00;65.20
15298;DHT22;7750;48.796;9.026;2022-09-09T05:51:36;19.00;65.20
15298;DHT22;7750;48.796;9.026;2022-09-09T05:56:37;19.00;65.40
15298;DHT22;7750;48.796;9.026;2022-09-09T06:01:38;19.00;65.40
15298;DHT22;7750;48.796;9.026;2022-09-09T06:06:40;19.00;65.40
15298;DHT22;7750;48.796;9.026;2022-09-09T06:11:42;19.10;65.60
15298;DHT22;7750;48.796;9.026;2022-09-09T06:16:43;19.10;65.60
15298;DHT22;7750;48.796;9.026;2022-09-09T06:21:44;19.10;65.60
15298;DHT22;7750;48.796;9.026;2022-09-09T06:26:45;19.20;65.60
15298;DHT22;7750;48.796;9.026;2022-09-09T06:31:45;19.20;65.60
15298;DHT22;7750;48.796;9.026;2022-09-09T06:36:47;19.20;65.60
15298;DHT22;7750;48.796;9.026;2022-09-09T06:41:48;19.30;65.80
15298;DHT22;7750;48.796;9.026;2022-09-09T06:46:50;19.30;65.90
15298;DHT22;7750;48.796;9.026;2022-09-09T06:51:50;19.30;66.00
15298;DHT22;7750;48.796;9.026;2022-09-09T06:56:52;19.40;66.00
15298;DHT22;7750;48.796;9.026;2022-09-09T07:01:53;19.50;66.30
15298;DHT22;7750;48.796;9.026;2022-09-09T07:06:54;19.60;66.30
15298;DHT22;7750;48.796;9.026;2022-09-09T07:11:55;19.60;66.40
15298;DHT22;7750;48.796;9.026;2022-09-09T07:16:59;19.70;66.40
15298;DHT22;7750;48.796;9.026;2022-09-09T07:27:03;20.10;66.20
15298;DHT22;7750;48.796;9.026;2022-09-09T07:32:06;20.30;66.20
15298;DHT22;7750;48.796;9.026;2022-09-09T07:37:06;20.50;66.10
15298;DHT22;7750;48.796;9.026;2022-09-09T07:42:07;20.60;65.40
15298;DHT22;7750;48.796;9.026;2022-09-09T07:47:10;20.70;65.60
15298;DHT22;7750;48.796;9.026;2022-09-09T07:52:11;20.80;66.50
15298;DHT22;7750;48.796;9.026;2022-09-09T07:57:12;21.30;66.80
15298;DHT22;7750;48.796;9.026;2022-09-09T08:02:12;21.90;65.00
15298;DHT22;7750;48.796;9.026;2022-09-09T08:07:13;22.20;63.20
15298;DHT22;7750;48.796;9.026;2022-09-09T08:12:14;22.40;63.00
15298;DHT22;7750;48.796;9.026;2022-09-09T08:17:15;22.60;62.10
15298;DHT22;7750;48.796;9.026;2022-09-09T08:22:15;23.00;61.20
15298;DHT22;7750;48.796;9.026;2022-09-09T08:27:16;23.40;60.60
15298;DHT22;7750;48.796;9.026;2022-09-09T08:32:16;23.80;60.20
15298;DHT22;7750;48.796;9.026;2022-09-09T08:37:19;24.10;58.70
15298;DHT22;7750;48.796;9.026;2022-09-09T08:47:42;24.40;58.10
15298;DHT22;7750;48.796;9.026;2022-09-09T08:58:27;24.30;55.40
15298;DHT22;7750;48.796;9.026;2022-09-09T09:03:50;24.10;55.50
15298;DHT22;7750;48.796;9.026;2022-09-09T09:14:30;23.70;55.80
15298;DHT22;7750;48.796;9.026;2022-09-09T09:19:35;23.40;56.40
15298;DHT22;7750;48.796;9.026;2022-09-09T09:29:48;23.00;58.00
15298;DHT22;7750;48.796;9.026;2022-09-09T09:34:56;22.90;59.50
15298;DHT22;7750;48.796;9.026;2022-09-09T09:40:27;22.90;59.10
15298;DHT22;7750;48.796;9.026;2022-09-09T09:45:41;22.90;57.40
15298;DHT22;7750;48.796;9.026;2022-09-09T09:51:14;23.00;55.90
15298;DHT22;7750;48.796;9.026;2022-09-09T09:56:16;23.10;56.70
15298;DHT22;7750;48.796;9.026;2022-09-09T10:01:28;23.10;55.90
15298;DHT22;7750;48.796;9.026;2022-09-09T10:06:35;23.20;56.30
15298;DHT22;7750;48.796;9.026;2022-09-09T10:11:51;23.20;56.40
15298;DHT22;7750;48.796;9.026;2022-09-09T10:17:17;23.40;56.40
15298;DHT22;7750;48.796;9.026;2022-09-09T10:48:30;24.80;54.80
15298;DHT22;7750;48.796;9.026;2022-09-09T10:53:35;25.10;57.60
15298;DHT22;7750;48.796;9.026;2022-09-09T10:58:42;25.00;59.40
15298;DHT22;7750;48.796;9.026;2022-09-09T11:03:49;24.80;58.00
15298;DHT22;7750;48.796;9.026;2022-09-09T11:08:52;24.30;57.80
15298;DHT22;7750;48.796;9.026;2022-09-09T11:14:04;23.70;56.30
15298;DHT22;7750;48.796;9.026;2022-09-09T11:44:53;21.50;61.50
15298;DHT22;7750;48.796;9.026;2022-09-09T11:55:25;21.20;62.80
15298;DHT22;7750;48.796;9.026;2022-09-09T12:05:45;21.20;65.20
15298;DHT22;7750;48.796;9.026;2022-09-09T12:10:56;21.50;65.00
15298;DHT22;7750;48.796;9.026;2022-09-09T12:16:01;21.80;64.20
15298;DHT22;7750;48.796;9.026;2022-09-09T12:27:20;22.30;61.00
15298;DHT22;7750;48.796;9.026;2022-09-09T12:32:24;22.60;59.90
15298;DHT22;7750;48.796;9.026;2022-09-09T12:37:37;23.50;58.20
15298;DHT22;7750;48.796;9.026;2022-09-09T12:42:40;23.60;58.20
15298;DHT22;7750;48.796;9.026;2022-09-09T12:52:44;24.20;56.30
15298;DHT22;7750;48.796;9.026;2022-09-09T12:57:49;24.40;56.20
15298;DHT22;7750;48.796;9.026;2022-09-09T13:02:58;24.60;54.40
15298;DHT22;7750;48.796;9.026;2022-09-09T13:08:06;24.70;53.90
15298;DHT22;7750;48.796;9.026;2022-09-09T13:13:15;24.70;53.90
15298;DHT22;7750;48.796;9.026;2022-09-09T13:18:20;24.80;53.00
15298;DHT22;7750;48.796;9.026;2022-09-09T13:23:22;24.90;53.60
15298;DHT22;7750;48.796;9.026;2022-09-09T13:28:25;25.10;52.90
15298;DHT22;7750;48.796;9.026;2022-09-09T13:33:34;25.20;52.70
15298;DHT22;7750;48.796;9.026;2022-09-09T13:38:58;25.20;51.30
15298;DHT22;7750;48.796;9.026;2022-09-09T13:44:03;25.20;51.80
15298;DHT22;7750;48.796;9.026;2022-09-09T13:54:11;25.30;50.70
15298;DHT22;7750;48.796;9.026;2022-09-09T13:59:15;25.60;48.60
15298;DHT22;7750;48.796;9.026;2022-09-09T14:04:17;25.70;49.40
15298;DHT22;7750;48.796;9.026;2022-09-09T14:09:19;25.80;48.50
15298;DHT22;7750;48.796;9.026;2022-09-09T14:14:19;25.90;48.30
15298;DHT22;7750;48.796;9.026;2022-09-09T14:19:20;26.00;48.00
15298;DHT22;7750;48.796;9.026;2022-09-09T14:24:27;26.10;47.70
15298;DHT22;7750;48.796;9.026;2022-09-09T14:29:28;26.10;46.30
15298;DHT22;7750;48.796;9.026;2022-09-09T14:34:29;26.10;46.60
15298;DHT22;7750;48.796;9.026;2022-09-09T14:39:32;26.00;46.60
15298;DHT22;7750;48.796;9.026;2022-09-09T14:44:33;26.00;48.00
15298;DHT22;7750;48.796;9.026;2022-09-09T14:49:34;26.00;46.80
15298;DHT22;7750;48.796;9.026;2022-09-09T14:54:35;26.00;47.10
15298;DHT22;7750;48.796;9.026;2022-09-09T14:59:39;25.90;46.70
15298;DHT22;7750;48.796;9.026;2022-09-09T15:04:39;25.80;46.30
15298;DHT22;7750;48.796;9.026;2022-09-09T15:09:43;25.70;46.20
15298;DHT22;7750;48.796;9.026;2022-09-09T15:14:52;25.50;46.50
15298;DHT22;7750;48.796;9.026;2022-09-09T15:19:57;25.30;46.60
15298;DHT22;7750;48.796;9.026;2022-09-09T15:24:57;25.20;47.10
15298;DHT22;7750;48.796;9.026;2022-09-09T15:29:58;25.10;48.10
15298;DHT22;7750;48.796;9.026;2022-09-09T15:35:01;25.00;48.10
15298;DHT22;7750;48.796;9.026;2022-09-09T15:40:05;25.00;48.10
15298;DHT22;7750;48.796;9.026;2022-09-09T15:45:07;24.90;48.00
15298;DHT22;7750;48.796;9.026;2022-09-09T15:50:09;24.80;48.10
15298;DHT22;7750;48.796;9.026;2022-09-09T15:55:09;24.70;47.80
15298;DHT22;7750;48.796;9.026;2022-09-09T16:00:11;24.60;48.20
15298;DHT22;7750;48.796;9.026;2022-09-09T16:05:13;24.40;48.30
15298;DHT22;7750;48.796;9.026;2022-09-09T16:10:14;24.30;48.50
15298;DHT22;7750;48.796;9.026;2022-09-09T16:15:15;24.20;48.50
15298;DHT22;7750;48.796;9.026;2022-09-09T16:20:15;24.10;48.70
15298;DHT22;7750;48.796;9.026;2022-09-09T16:25:16;23.90;49.40
15298;DHT22;7750;48.796;9.026;2022-09-09T16:30:18;23.70;49.70
15298;DHT22;7750;48.796;9.026;2022-09-09T16:35:19;23.40;50.00
15298;DHT22;7750;48.796;9.026;2022-09-09T16:40:21;23.10;49.80
15298;DHT22;7750;48.796;9.026;2022-09-09T16:45:22;22.90;49.90
15298;DHT22;7750;48.796;9.026;2022-09-09T16:50:22;22.60;51.70
15298;DHT22;7750;48.796;9.026;2022-09-09T16:55:23;22.40;52.90
15298;DHT22;7750;48.796;9.026;2022-09-09T17:00:24;22.20;53.70
15298;DHT22;7750;48.796;9.026;2022-09-09T17:05:25;22.00;54.20
15298;DHT22;7750;48.796;9.026;2022-09-09T17:10:25;21.90;54.50
15298;DHT22;7750;48.796;9.026;2022-09-09T17:15:26;21.70;55.10
15298;DHT22;7750;48.796;9.026;2022-09-09T17:20:26;21.60;55.30
15298;DHT22;7750;48.796;9.026;2022-09-09T17:25:27;21.50;55.40
15298;DHT22;7750;48.796;9.026;2022-09-09T17:30:28;21.40;55.80
15298;DHT22;7750;48.796;9.026;2022-09-09T17:35:29;21.30;56.60
15298;DHT22;7750;48.796;9.026;2022-09-09T17:40:30;21.20;56.40
15298;DHT22;7750;48.796;9.026;2022-09-09T17:45:30;21.20;56.40
15298;DHT22;7750;48.796;9.026;2022-09-09T17:50:32;21.10;56.80
15298;DHT22;7750;48.796;9.026;2022-09-09T17:55:34;21.00;57.10
15298;DHT22;7750;48.796;9.026;2022-09-09T18:00:34;20.90;57.30
15298;DHT22;7750;48.796;9.026;2022-09-09T18:05:35;20.90;57.20
15298;DHT22;7750;48.796;9.026;2022-09-09T18:10:37;20.80;57.70
15298;DHT22;7750;48.796;9.026;2022-09-09T18:15:38;20.80;57.90
15298;DHT22;7750;48.796;9.026;2022-09-09T18:20:39;20.70;58.30
15298;DHT22;7750;48.796;9.026;2022-09-09T18:25:40;20.70;58.50
15298;DHT22;7750;48.796;9.026;2022-09-09T18:30:41;20.70;58.30
15298;DHT22;7750;48.796;9.026;2022-09-09T18:35:41;20.70;58.40
15298;DHT22;7750;48.796;9.026;2022-09-09T18:40:43;20.70;58.80
15298;DHT22;7750;48.796;9.026;2022-09-09T18:45:43;20.70;58.70
15298;DHT22;7750;48.796;9.026;2022-09-09T18:50:44;20.60;59.00
15298;DHT22;7750;48.796;9.026;2022-09-09T18:55:45;20.60;58.80
15298;DHT22;7750;48.796;9.026;2022-09-09T19:00:45;20.70;59.20
15298;DHT22;7750;48.796;9.026;2022-09-09T19:05:46;20.60;59.00
15298;DHT22;7750;48.796;9.026;2022-09-09T19:10:47;20.60;59.10
15298;DHT22;7750;48.796;9.026;2022-09-09T19:15:47;20.50;59.50
15298;DHT22;7750;48.796;9.026;2022-09-09T19:20:48;20.40;59.60
15298;DHT22;7750;48.796;9.026;2022-09-09T19:25:49;20.40;59.70
15298;DHT22;7750;48.796;9.026;2022-09-09T19:30:50;20.30;59.80
15298;DHT22;7750;48.796;9.026;2022-09-09T19:35:58;20.30;59.80
15298;DHT22;7750;48.796;9.026;2022-09-09T19:41:05;20.30;60.30
15298;DHT22;7750;48.796;9.026;2022-09-09T19:46:09;20.20;60.10
15298;DHT22;7750;48.796;9.026;2022-09-09T19:51:16;20.20;60.10
15298;DHT22;7750;48.796;9.026;2022-09-09T19:56:18;20.10;60.10
15298;DHT22;7750;48.796;9.026;2022-09-09T20:01:21;20.10;60.20
15298;DHT22;7750;48.796;9.026;2022-09-09T20:06:26;20.10;60.50
15298;DHT22;7750;48.796;9.026;2022-09-09T20:11:27;20.00;60.80
15298;DHT22;7750;48.796;9.026;2022-09-09T20:16:29;20.00;61.00
15298;DHT22;7750;48.796;9.026;2022-09-09T20:21:32;19.90;60.70
15298;DHT22;7750;48.796;9.026;2022-09-09T20:26:34;19.90;60.60
15298;DHT22;7750;48.796;9.026;2022-09-09T20:31:38;19.90;60.80
15298;DHT22;7750;48.796;9.026;2022-09-09T20:36:42;19.90;60.90
15298;DHT22;7750;48.796;9.026;2022-09-09T20:41:43;19.90;60.90
15298;DHT22;7750;48.796;9.026;2022-09-09T20:46:46;19.90;61.10
15298;DHT22;7750;48.796;9.026;2022-09-09T20:51:48;19.80;61.10
15298;DHT22;7750;48.796;9.026;2022-09-09T20:56:51;19.80;61.10
15298;DHT22;7750;48.796;9.026;2022-09-09T21:01:52;19.70;61.10
15298;DHT22;7750;48.796;9.026;2022-09-09T21:06:53;19.70;61.00
15298;DHT22;7750;48.796;9.026;2022-09-09T21:11:53;19.70;61.10
15298;DHT22;7750;48.796;9.026;2022-09-09T21:16:54;19.60;61.00
15298;DHT22;7750;48.796;9.026;2022-09-09T21:21:55;19.60;61.10
15298;DHT22;7750;48.796;9.026;2022-09-09T21:26:56;19.60;61.10
15298;DHT22;7750;48.796;9.026;2022-09-09T21:31:57;19.50;61.10
15298;DHT22;7750;48.796;9.026;2022-09-09T21:36:59;19.50;61.30
15298;DHT22;7750;48.796;9.026;2022-09-09T21:42:01;19.50;61.30
15298;DHT22;7750;48.796;9.026;2022-09-09T21:47:02;19.40;61.40
15298;DHT22;7750;48.796;9.026;2022-09-09T21:52:03;19.40;61.50
15298;DHT22;7750;48.796;9.026;2022-09-09T21:57:03;19.30;61.70
15298;DHT22;7750;48.796;9.026;2022-09-09T22:02:04;19.30;61.80
15298;DHT22;7750;48.796;9.026;2022-09-09T22:07:05;19.30;61.90
15298;DHT22;7750;48.796;9.026;2022-09-09T22:12:06;19.30;62.10
15298;DHT22;7750;48.796;9.026;2022-09-09T22:17:06;19.30;62.20
15298;DHT22;7750;48.796;9.026;2022-09-09T22:22:07;19.30;62.20
15298;DHT22;7750;48.796;9.026;2022-09-09T22:27:08;19.20;62.10
15298;DHT22;7750;48.796;9.026;2022-09-09T22:32:09;19.20;62.40
15298;DHT22;7750;48.796;9.026;2022-09-09T22:37:10;19.20;62.50
15298;DHT22;7750;48.796;9.026;2022-09-09T22:42:10;19.20;62.70
15298;DHT22;7750;48.796;9.026;2022-09-09T22:47:11;19.20;63.20
15298;DHT22;7750;48.796;9.026;2022-09-09T22:52:12;19.20;64.00
15298;DHT22;7750;48.796;9.026;2022-09-09T22:57:12;19.10;64.90
15298;DHT22;7750;48.796;9.026;2022-09-09T23:02:13;19.00;66.80
15298;DHT22;7750;48.796;9.026;2022-09-09T23:07:14;19.00;67.10
15298;DHT22;7750;48.796;9.026;2022-09-09T23:12:19;18.90;67.80
15298;DHT22;7750;48.796;9.026;2022-09-09T23:17:22;18.80;67.70
15298;DHT22;7750;48.796;9.026;2022-09-09T23:22:23;18.70;67.90
15298;DHT22;7750;48.796;9.026;2022-09-09T23:27:23;18.60;68.00
15298;DHT22;7750;48.796;9.026;2022-09-09T23:32:24;18.60;68.40
15298;DHT22;7750;48.796;9.026;2022-09-09T23:37:25;18.60;68.80
15298;DHT22;7750;48.796;9.026;2022-09-09T23:42:26;18.60;69.00
15298;DHT22;7750;48.796;9.026;2022-09-09T23:47:28;18.60;68.90
15298;DHT22;7750;48.796;9.026;2022-09-09T23:52:28;18.60;69.30
15298;DHT22;7750;48.796;9.026;2022-09-09T23:57:29;18.60;69.50
